Challis, ID

3:25 PM MDT on April 24, 2017 (GMT -0600)
Challis | | Change Station

Elev 5072 ft 44.52 °N, 114.22 °W | Updated 30 minutes ago

Mostly Cloudy
Mostly Cloudy
45 °F
Feels Like 41 °F
N
7
Wind Variable Wind from NE

Today
High -- | Low -- °F
--% Chance of Precip.
Yesterday
High -- | Low -- °F
Precip. -- in
Pressure 29.55 in
Visibility 10.0 miles
Clouds Mostly Cloudy 3100 ft
Mostly Cloudy 6000 ft
Windchill 41 °F
Dew Point 39 °F
Humidity 80%
Rainfall 0.03 in
Snow Depth Not available.
6:37 AM 8:33 PM
Waning Crescent, 4% visible
METAR KLLJ 242055Z AUTO 05006KT 10SM BKN031 BKN060 07/04 A2959 RMK AO2 RAE10B33E49 SLP004 P0000 60002 T00720039 55006
Pressure 29.55 in
Visibility 10.0 miles
Clouds Mostly Cloudy 3100 ft
Mostly Cloudy 6000 ft
Windchill 41 °F
Dew Point 39 °F
Humidity 80%
Rainfall 0.03 in
Snow Depth Not available.
6:37 AM 8:33 PM
Waning Crescent, 4% visible
METAR KLLJ 242055Z AUTO 05006KT 10SM BKN031 BKN060 07/04 A2959 RMK AO2 RAE10B33E49 SLP004 P0000 60002 T00720039 55006

Get Severe Weather Alerts

Thanks for signing up!

Be on the lookout for a verification email in your inbox.

You'll start receiving the daily forecast at 8 AM.

×

10-Day Weather Forecast

Almanac

Astronomy

Apr. 24, 2017 Rise Set
Actual Time
Civil Twilight
Nautical Twilight
Astronomical Twilight
Moon
Length of Visible Light
Length of Day
Tomorrow will be .
, % of the Moon is Illuminated

Today's Extremes

State Highs State Lows

Community

WunderPhotos

WunderBlog® & News

Nearby

Air Quality

  Air Quality AQ Index Pollutant
Not available.

Snow Depth

Station Depth Elevation

Earthquake Activity

City Distance Mag. Time & Date
Minimum magnitude displayed is 2.5.

Coastal Water Temperatures

Place Temperature

Stations

Nearby Weather Stations

Station Location Temp. Windchill Dew Point Humidity Wind Precip. Elev Updated Type
                   

Watches & Warnings

There are currently no watches in effect.